Doutor Pedrinho, Brazil
Current Conditions -  °F | °C
As of 6:00 AM on Wednesday 26 Nov 2014 (Local Time) from SBNF Reporting Station
Haze Haze  
Wind Chill: 75°   Ceiling: 1500
Heat Index: 75°   Visibility: 2.5mi
Dew Point: 73°   Wind: 3mph
Humidity: 94%   Direction: 250°WSW
Pressure: 29.68"   Gusts: NA
Location:  26.72°S, 49.48°W
Report Text: SBNF 260800Z 25003KT 4000 BR SCT006 BKN015 24/23 Q1005
Loading
Personal Weather Stations






























Interactive Weather Map New forecast layout! Learn more

10-Day Weather Forecast

Advertisements
Track Severe Weather on mobile